Time;durP1;ratioP1;P1;durP2;ratioP2;P2;SDS_P1;SDS_P2;PMS_P1;PMS_P2;Temp;Humidity;BMP_temperature;BMP_pressure;BME280_temperature;BME280_humidity;BME280_pressure;Samples;Min_cycle;Max_cycle;Signal;HPM_P1;HPM_P2
2020/12/23 00:00:08;;;;;;;3.22;1.23;;;12.80;99.90;;;;;;5013227;28;20510;-73
2020/12/23 00:02:34;;;;;;;1.00;0.82;;;12.70;99.90;;;;;;5002255;28;20023;-73
2020/12/23 00:05:00;;;;;;;1.33;0.85;;;12.70;99.90;;;;;;4995724;28;20080;-73
2020/12/23 00:07:25;;;;;;;1.98;0.70;;;12.70;99.90;;;;;;5012833;28;20084;-73
2020/12/23 00:09:51;;;;;;;3.33;0.80;;;12.70;99.90;;;;;;5014600;28;20401;-73
2020/12/23 00:12:17;;;;;;;1.45;0.70;;;12.70;99.90;;;;;;5017239;28;20029;-72
2020/12/23 00:14:42;;;;;;;0.63;0.63;;;12.70;99.90;;;;;;5015530;28;20029;-72
2020/12/23 00:17:08;;;;;;;0.75;0.70;;;12.80;99.90;;;;;;5000637;28;20026;-72
2020/12/23 00:19:33;;;;;;;0.93;0.65;;;12.90;99.90;;;;;;5008454;28;20093;-72
2020/12/23 00:22:00;;;;;;;0.90;0.90;;;12.90;99.90;;;;;;5012975;28;20030;-73
2020/12/23 00:24:25;;;;;;;1.80;0.82;;;12.90;99.90;;;;;;5012625;28;20030;-73
2020/12/23 00:26:51;;;;;;;1.42;0.60;;;12.90;99.90;;;;;;5012819;28;20036;-73
2020/12/23 00:29:16;;;;;;;1.63;0.80;;;13.00;99.90;;;;;;5012933;28;20472;-73
2020/12/23 00:31:42;;;;;;;0.68;0.68;;;13.00;99.90;;;;;;5013265;28;20404;-73
2020/12/23 00:34:07;;;;;;;0.80;0.75;;;13.00;99.90;;;;;;5012098;28;20117;-73
2020/12/23 00:36:34;;;;;;;0.73;0.70;;;13.00;99.90;;;;;;5012623;28;20109;-72
2020/12/23 00:38:59;;;;;;;0.70;0.70;;;13.10;99.90;;;;;;5012400;28;20026;-73
2020/12/23 00:41:25;;;;;;;0.63;0.63;;;13.10;99.90;;;;;;5012320;28;20030;-73
2020/12/23 00:43:50;;;;;;;0.65;0.65;;;13.10;99.90;;;;;;5012029;28;20072;-73
2020/12/23 00:46:16;;;;;;;1.02;0.60;;;13.10;99.90;;;;;;5012432;28;20025;-73
2020/12/23 00:48:43;;;;;;;1.27;0.63;;;13.20;99.90;;;;;;5011761;28;20058;-73
2020/12/23 00:51:14;;;;;;;0.60;0.60;;;13.20;99.90;;;;;;5017663;28;20034;-73
2020/12/23 00:53:40;;;;;;;0.67;0.60;;;13.30;99.90;;;;;;5018088;28;20045;-72
2020/12/23 00:56:06;;;;;;;0.43;0.43;;;13.50;99.90;;;;;;5017015;28;20272;-73
2020/12/23 00:58:31;;;;;;;1.13;0.65;;;13.60;99.90;;;;;;5016254;28;20101;-73
2020/12/23 01:00:58;;;;;;;0.45;0.45;;;13.60;99.90;;;;;;5016119;28;20550;-73
2020/12/23 01:03:23;;;;;;;0.70;0.70;;;13.70;99.90;;;;;;5015849;28;20033;-73
2020/12/23 01:05:50;;;;;;;1.38;0.60;;;13.70;99.90;;;;;;5016440;28;20548;-73
2020/12/23 01:08:15;;;;;;;1.65;0.98;;;13.70;99.90;;;;;;5016140;28;20096;-73
2020/12/23 01:10:44;;;;;;;1.60;0.60;;;13.70;99.90;;;;;;5016108;28;20026;-72
2020/12/23 01:13:09;;;;;;;1.80;0.65;;;13.80;99.90;;;;;;4998486;28;20030;-72
2020/12/23 01:15:35;;;;;;;0.60;0.52;;;13.90;99.90;;;;;;5016203;28;20164;-73
2020/12/23 01:18:02;;;;;;;0.65;0.50;;;13.80;99.90;;;;;;5014401;28;20034;-72
2020/12/23 01:20:28;;;;;;;0.50;0.50;;;13.90;99.90;;;;;;4999122;28;20041;-72
2020/12/23 01:22:53;;;;;;;1.75;0.70;;;13.90;99.90;;;;;;5015826;28;20026;-72
2020/12/23 01:25:19;;;;;;;0.43;0.43;;;13.80;99.90;;;;;;5015214;28;20037;-73
2020/12/23 01:27:44;;;;;;;0.82;0.70;;;13.80;99.90;;;;;;5015899;28;20026;-73
2020/12/23 01:30:10;;;;;;;1.10;0.45;;;13.90;99.90;;;;;;5016291;28;20034;-73
2020/12/23 01:32:35;;;;;;;0.60;0.60;;;14.00;99.90;;;;;;5018823;28;20026;-71
2020/12/23 01:35:01;;;;;;;0.63;0.63;;;14.00;99.90;;;;;;5022071;28;20032;-73
2020/12/23 01:37:26;;;;;;;0.57;0.50;;;13.90;99.90;;;;;;5025695;28;20108;-72
2020/12/23 01:39:52;;;;;;;0.80;0.52;;;13.90;99.90;;;;;;5024085;28;20028;-72
2020/12/23 01:42:17;;;;;;;0.80;0.73;;;13.90;99.90;;;;;;5026570;28;20026;-73
2020/12/23 01:44:43;;;;;;;1.23;0.75;;;13.80;99.90;;;;;;5023679;28;20030;-73
2020/12/23 01:47:19;;;;;;;1.00;0.80;;;13.80;99.90;;;;;;5019849;28;20037;-72
2020/12/23 01:49:45;;;;;;;0.60;0.57;;;13.80;99.90;;;;;;5002649;28;20065;-72
2020/12/23 01:52:11;;;;;;;2.55;0.47;;;13.90;99.90;;;;;;5016948;28;20034;-72
2020/12/23 01:54:38;;;;;;;0.93;0.50;;;13.80;99.90;;;;;;5000222;28;20025;-73
2020/12/23 01:57:09;;;;;;;0.90;0.70;;;13.90;99.90;;;;;;5017559;28;20482;-72
2020/12/23 01:59:36;;;;;;;1.25;0.52;;;13.90;99.90;;;;;;5016976;28;20034;-72
2020/12/23 02:02:31;;;;;;;0.50;0.50;;;14.00;99.90;;;;;;4999702;28;20482;-72
2020/12/23 02:05:07;;;;;;;1.73;0.60;;;14.00;99.90;;;;;;5017289;28;20084;-72
2020/12/23 02:07:33;;;;;;;0.40;0.40;;;14.00;99.90;;;;;;5016461;28;20030;-73
2020/12/23 02:10:01;;;;;;;0.40;0.40;;;14.10;99.90;;;;;;5015240;28;20026;-73
2020/12/23 02:12:27;;;;;;;0.40;0.40;;;14.20;99.90;;;;;;5015570;28;20444;-72
2020/12/23 02:14:58;;;;;;;0.35;0.32;;;14.30;99.90;;;;;;5014811;28;20061;-73
2020/12/23 02:17:26;;;;;;;;;;;14.20;99.90;;;;;;5014568;28;20113;-71
2020/12/23 02:19:52;;;;;;;0.50;0.40;;;14.30;99.90;;;;;;4997260;28;19906;-72
2020/12/23 02:22:22;;;;;;;0.75;0.47;;;14.30;99.90;;;;;;4997140;28;20022;-72
2020/12/23 02:24:49;;;;;;;0.50;0.40;;;14.30;99.90;;;;;;5014800;28;20026;-73
2020/12/23 02:27:15;;;;;;;0.43;0.40;;;14.30;99.90;;;;;;4997006;28;20034;-73
2020/12/23 02:29:43;;;;;;;1.33;0.55;;;14.30;99.90;;;;;;5014902;28;20030;-73
2020/12/23 02:32:08;;;;;;;0.50;0.50;;;14.30;99.90;;;;;;5014598;28;20037;-73
2020/12/23 02:34:34;;;;;;;1.00;0.50;;;14.30;99.90;;;;;;5014594;28;20026;-73
2020/12/23 02:36:59;;;;;;;0.68;0.52;;;14.30;99.90;;;;;;5014393;28;20018;-72
2020/12/23 02:39:25;;;;;;;0.40;0.40;;;14.30;99.90;;;;;;4980335;28;20393;-73
2020/12/23 02:41:58;;;;;;;0.45;0.30;;;14.30;99.90;;;;;;5014398;28;20030;-72
2020/12/23 02:44:24;;;;;;;0.50;0.50;;;14.30;99.90;;;;;;4996975;28;20120;-73
2020/12/23 02:46:58;;;;;;;0.40;0.40;;;14.30;99.90;;;;;;5013933;28;20068;-72
2020/12/23 02:49:25;;;;;;;0.50;0.50;;;14.40;99.90;;;;;;5014093;28;20477;-73
2020/12/23 02:51:51;;;;;;;3.50;0.40;;;14.40;99.90;;;;;;5014476;28;20544;-73
2020/12/23 02:54:17;;;;;;;0.65;0.40;;;14.40;99.90;;;;;;5017705;28;20148;-72
2020/12/23 02:56:43;;;;;;;1.05;0.40;;;14.40;99.90;;;;;;5016869;28;20022;-72
2020/12/23 02:59:09;;;;;;;0.40;0.40;;;14.40;99.90;;;;;;5013783;28;20022;-73
2020/12/23 03:01:35;;;;;;;0.43;0.40;;;14.40;99.90;;;;;;5013116;28;20391;-73
2020/12/23 03:04:01;;;;;;;0.35;0.35;;;14.40;99.90;;;;;;5013804;28;20160;-73
2020/12/23 03:06:27;;;;;;;0.45;0.45;;;14.40;99.90;;;;;;5013582;28;20034;-73
2020/12/23 03:08:53;;;;;;;0.30;0.30;;;14.50;99.90;;;;;;5013679;28;20037;-73
2020/12/23 03:11:19;;;;;;;0.60;0.43;;;14.50;99.90;;;;;;5013479;28;20401;-73
2020/12/23 03:13:44;;;;;;;0.50;0.50;;;14.40;99.90;;;;;;4996235;28;20022;-72
2020/12/23 03:16:10;;;;;;;2.75;0.38;;;14.50;99.90;;;;;;5009720;28;20569;-72
2020/12/23 03:18:35;;;;;;;0.68;0.40;;;14.50;99.90;;;;;;5014246;28;20021;-72
2020/12/23 03:21:01;;;;;;;1.35;0.35;;;14.40;99.90;;;;;;5014741;28;20061;-72
2020/12/23 03:23:26;;;;;;;0.40;0.40;;;14.40;99.90;;;;;;5013563;28;20065;-72
2020/12/23 03:25:52;;;;;;;0.30;0.30;;;14.40;99.90;;;;;;5014421;28;20393;-72
2020/12/23 03:28:18;;;;;;;1.95;0.50;;;14.50;99.90;;;;;;5013683;28;20033;-72
2020/12/23 03:30:43;;;;;;;4.57;1.20;;;14.40;99.90;;;;;;5013541;28;20430;-72
2020/12/23 03:33:09;;;;;;;0.40;0.40;;;14.50;99.90;;;;;;5013914;28;20079;-72
2020/12/23 03:35:34;;;;;;;1.77;0.40;;;14.50;99.90;;;;;;5013245;28;20033;-72
2020/12/23 03:38:00;;;;;;;0.82;0.50;;;14.40;99.90;;;;;;5013498;28;20032;-72
2020/12/23 03:40:25;;;;;;;1.95;0.30;;;14.40;99.90;;;;;;5013113;28;20030;-72
2020/12/23 03:42:51;;;;;;;0.55;0.40;;;14.40;99.90;;;;;;5013105;28;20101;-72
2020/12/23 03:45:16;;;;;;;0.65;0.32;;;14.40;99.90;;;;;;5012629;28;20494;-72
2020/12/23 03:47:42;;;;;;;0.85;0.40;;;14.40;99.90;;;;;;5013105;28;20029;-72
2020/12/23 03:50:07;;;;;;;0.35;0.32;;;14.40;99.90;;;;;;5013005;28;20034;-73
2020/12/23 03:52:33;;;;;;;0.75;0.50;;;14.40;99.90;;;;;;5012969;28;20018;-73
2020/12/23 03:54:58;;;;;;;2.40;1.02;;;14.40;99.90;;;;;;5012681;28;20088;-74
2020/12/23 03:57:24;;;;;;;0.95;0.40;;;14.40;99.90;;;;;;5012732;28;20030;-73
2020/12/23 03:59:50;;;;;;;0.63;0.57;;;14.40;99.90;;;;;;5012317;28;20102;-72
2020/12/23 04:02:15;;;;;;;0.30;0.30;;;14.50;99.90;;;;;;5013139;28;20030;-73
2020/12/23 04:04:41;;;;;;;0.40;0.40;;;14.50;99.90;;;;;;5013265;28;20056;-73
2020/12/23 04:07:06;;;;;;;0.47;0.30;;;14.50;99.90;;;;;;5012842;28;20230;-71
2020/12/23 04:09:32;;;;;;;0.45;0.45;;;14.40;99.90;;;;;;5012905;28;20508;-73
2020/12/23 04:11:57;;;;;;;0.30;0.30;;;14.40;99.90;;;;;;5012696;28;20529;-72
2020/12/23 04:14:24;;;;;;;0.40;0.40;;;14.40;99.90;;;;;;5012985;28;20125;-72
2020/12/23 04:16:49;;;;;;;0.30;0.30;;;14.50;99.90;;;;;;5012806;28;20025;-72
2020/12/23 04:19:15;;;;;;;0.50;0.50;;;14.50;99.90;;;;;;5012519;28;20030;-72
2020/12/23 04:21:40;;;;;;;0.80;0.40;;;14.50;99.90;;;;;;5015044;28;20030;-73
2020/12/23 04:24:06;;;;;;;0.60;0.50;;;14.50;99.90;;;;;;5012496;28;20057;-74
2020/12/23 04:26:31;;;;;;;0.50;0.50;;;14.50;99.90;;;;;;4995544;28;20038;-72
2020/12/23 04:28:57;;;;;;;0.60;0.40;;;14.40;99.90;;;;;;4995860;28;20030;-73
2020/12/23 04:31:22;;;;;;;1.30;0.28;;;14.40;99.90;;;;;;5012707;28;20494;-73
2020/12/23 04:33:48;;;;;;;0.52;0.40;;;14.40;99.90;;;;;;5013371;28;20054;-72
2020/12/23 04:36:13;;;;;;;0.65;0.40;;;14.30;99.90;;;;;;5013084;28;20026;-73
2020/12/23 04:38:39;;;;;;;0.50;0.50;;;14.30;99.90;;;;;;5012755;28;20026;-73
2020/12/23 04:41:04;;;;;;;0.38;0.38;;;14.30;99.90;;;;;;5012970;28;20022;-72
2020/12/23 04:43:30;;;;;;;0.50;0.47;;;14.30;99.90;;;;;;5013583;28;20026;-72
2020/12/23 04:45:57;;;;;;;0.55;0.40;;;14.20;99.90;;;;;;4995338;28;20065;-73
2020/12/23 04:48:26;;;;;;;1.17;0.40;;;14.20;99.90;;;;;;5013454;28;20030;-72
2020/12/23 04:50:55;;;;;;;0.38;0.38;;;14.20;99.90;;;;;;5013498;28;20125;-72
2020/12/23 04:53:20;;;;;;;0.70;0.40;;;14.20;99.90;;;;;;4995483;28;20026;-73
2020/12/23 04:55:47;;;;;;;0.40;0.35;;;14.20;99.90;;;;;;5013314;28;20042;-72
2020/12/23 04:58:13;;;;;;;0.40;0.40;;;14.10;99.90;;;;;;5013222;28;20547;-73
2020/12/23 05:00:38;;;;;;;2.00;0.50;;;14.10;99.90;;;;;;5012569;28;20026;-72
2020/12/23 05:03:04;;;;;;;0.43;0.30;;;14.10;99.90;;;;;;5013802;28;20267;-73
2020/12/23 05:05:30;;;;;;;0.43;0.40;;;14.00;99.90;;;;;;5012692;28;20084;-73
2020/12/23 05:07:55;;;;;;;0.50;0.50;;;14.00;99.90;;;;;;5012398;28;20486;-73
2020/12/23 05:10:21;;;;;;;0.47;0.40;;;13.90;99.90;;;;;;5012620;28;20033;-72
2020/12/23 05:12:47;;;;;;;0.50;0.50;;;13.90;99.90;;;;;;5013285;28;20477;-73
2020/12/23 05:15:13;;;;;;;0.55;0.50;;;13.90;99.90;;;;;;5013503;28;20034;-73
2020/12/23 05:17:45;;;;;;;0.50;0.47;;;13.80;99.90;;;;;;4994805;28;20562;-73
2020/12/23 05:20:11;;;;;;;0.50;0.50;;;13.70;99.90;;;;;;5011504;28;20088;-72
2020/12/23 05:22:37;;;;;;;0.70;0.50;;;13.70;99.90;;;;;;5011987;28;20022;-72
2020/12/23 05:25:04;;;;;;;0.95;0.60;;;13.70;99.90;;;;;;5012152;28;20061;-72
2020/12/23 05:27:33;;;;;;;0.50;0.50;;;13.70;99.90;;;;;;5011993;28;20034;-73
2020/12/23 05:30:02;;;;;;;6.70;2.05;;;13.70;99.90;;;;;;5011763;28;20087;-72
2020/12/23 05:32:27;;;;;;;0.63;0.43;;;13.70;99.90;;;;;;4995383;28;20030;-72
2020/12/23 05:34:59;;;;;;;0.75;0.63;;;13.70;99.90;;;;;;4996170;28;20033;-72
2020/12/23 05:37:25;;;;;;;0.90;0.50;;;13.70;99.90;;;;;;5018453;28;20112;-72
2020/12/23 05:39:51;;;;;;;0.50;0.50;;;13.80;99.90;;;;;;5020642;28;20018;-73
2020/12/23 05:42:18;;;;;;;1.05;0.60;;;13.70;99.90;;;;;;5016709;28;20033;-73
2020/12/23 05:44:53;;;;;;;0.50;0.50;;;13.70;99.90;;;;;;5015432;28;20087;-72
2020/12/23 05:47:20;;;;;;;0.77;0.77;;;13.70;99.90;;;;;;5015559;28;20026;-72
2020/12/23 05:49:47;;;;;;;0.95;0.50;;;13.80;99.90;;;;;;4984412;28;20117;-72
2020/12/23 05:52:14;;;;;;;0.50;0.50;;;13.80;99.90;;;;;;4995687;28;20577;-72
2020/12/23 05:54:40;;;;;;;1.95;0.57;;;13.70;99.90;;;;;;4995770;28;20041;-72
2020/12/23 05:57:06;;;;;;;0.90;0.77;;;13.70;99.90;;;;;;4995476;28;20081;-74
2020/12/23 05:59:31;;;;;;;1.48;0.40;;;13.70;99.90;;;;;;5007658;28;20022;-73
2020/12/23 06:01:59;;;;;;;0.68;0.50;;;13.70;99.90;;;;;;5015227;28;20334;-74
2020/12/23 06:04:27;;;;;;;0.50;0.50;;;13.70;99.90;;;;;;4997567;28;20037;-73
2020/12/23 06:06:55;;;;;;;1.55;0.60;;;13.70;99.90;;;;;;5014607;28;20030;-72
2020/12/23 06:09:30;;;;;;;1.27;0.70;;;13.60;99.90;;;;;;5014244;28;20030;-73
2020/12/23 06:11:56;;;;;;;1.98;0.80;;;13.70;99.90;;;;;;5015252;28;20030;-73
2020/12/23 06:14:25;;;;;;;0.63;0.63;;;13.60;99.90;;;;;;5014033;28;20029;-73
2020/12/23 06:17:05;;;;;;;0.63;0.63;;;13.60;99.90;;;;;;5016230;28;20119;-72
2020/12/23 06:19:38;;;;;;;1.48;0.80;;;13.50;99.90;;;;;;5017734;28;20576;-73
2020/12/23 06:22:05;;;;;;;2.40;0.60;;;13.50;99.90;;;;;;5015654;28;20022;-73
2020/12/23 06:24:31;;;;;;;1.10;0.60;;;13.50;99.90;;;;;;5017474;28;20030;-73
2020/12/23 06:26:58;;;;;;;2.33;0.63;;;13.50;99.90;;;;;;5016817;28;20406;-73
2020/12/23 06:29:26;;;;;;;0.77;0.63;;;13.50;99.90;;;;;;5015505;28;20026;-72
2020/12/23 06:32:01;;;;;;;2.25;0.98;;;13.50;99.90;;;;;;5015194;28;20488;-73
2020/12/23 06:34:29;;;;;;;0.70;0.70;;;13.60;99.90;;;;;;5014596;28;20076;-73
2020/12/23 06:36:56;;;;;;;1.95;0.60;;;13.50;99.90;;;;;;5014577;28;20037;-72
2020/12/23 06:39:52;;;;;;;0.75;0.75;;;13.50;99.90;;;;;;5014790;28;20061;-73
2020/12/23 06:42:20;;;;;;;3.47;0.70;;;13.50;99.90;;;;;;4997810;28;20030;-73
2020/12/23 06:44:58;;;;;;;1.00;0.70;;;13.50;99.90;;;;;;5014395;28;20025;-73
2020/12/23 06:47:25;;;;;;;1.42;1.10;;;13.40;99.90;;;;;;5000909;28;20037;-73
2020/12/23 06:49:55;;;;;;;3.20;2.28;;;13.50;99.90;;;;;;5014409;28;20048;-73
2020/12/23 06:52:21;;;;;;;1.80;1.20;;;13.50;99.90;;;;;;4996045;28;20084;-73
2020/12/23 06:55:03;;;;;;;1.30;0.73;;;13.50;99.90;;;;;;4997754;28;20034;-72
2020/12/23 06:57:34;;;;;;;2.15;1.50;;;13.50;99.90;;;;;;5012135;28;20155;-72
2020/12/23 07:00:20;;;;;;;1.65;0.90;;;13.50;99.90;;;;;;5023886;28;20517;-72
2020/12/23 07:02:57;;;;;;;1.13;0.70;;;13.50;99.90;;;;;;5011723;28;20122;-72
2020/12/23 07:05:23;;;;;;;1.48;0.80;;;13.60;99.90;;;;;;5025560;28;20022;-72
2020/12/23 07:07:54;;;;;;;0.50;0.50;;;13.50;99.90;;;;;;5008156;28;20041;-73
2020/12/23 07:10:24;;;;;;;1.58;1.48;;;13.50;99.90;;;;;;5027269;28;20029;-72
2020/12/23 07:12:59;;;;;;;0.68;0.50;;;13.50;99.90;;;;;;5028268;28;20026;-73
2020/12/23 07:15:26;;;;;;;1.63;0.60;;;13.50;99.90;;;;;;5015030;28;20069;-72
2020/12/23 07:18:12;;;;;;;1.30;0.77;;;13.50;99.90;;;;;;5023488;28;20029;-72
2020/12/23 07:20:39;;;;;;;3.10;0.70;;;13.60;99.90;;;;;;5020997;28;20089;-71
2020/12/23 07:23:08;;;;;;;0.57;0.57;;;13.50;99.90;;;;;;5006645;28;20030;-73
2020/12/23 07:25:39;;;;;;;1.75;0.68;;;13.50;99.90;;;;;;5037537;28;20042;-73
2020/12/23 07:28:07;;;;;;;2.35;0.88;;;13.50;99.90;;;;;;5038015;28;20029;-73
2020/12/23 07:30:35;;;;;;;1.58;0.95;;;13.50;99.90;;;;;;5037875;28;20018;-74
2020/12/23 07:33:14;;;;;;;1.00;0.75;;;13.50;99.90;;;;;;5036600;28;20094;-72
2020/12/23 07:35:53;;;;;;;0.90;0.60;;;13.50;99.90;;;;;;5021324;28;20097;-73
2020/12/23 07:38:24;;;;;;;1.92;1.00;;;13.50;99.90;;;;;;5013640;28;20022;-72
2020/12/23 07:40:51;;;;;;;1.35;0.95;;;13.50;99.90;;;;;;5016077;28;20064;-73
2020/12/23 07:43:18;;;;;;;0.70;0.57;;;13.50;99.90;;;;;;5018400;28;20176;-74
2020/12/23 07:45:44;;;;;;;0.93;0.57;;;13.50;99.90;;;;;;5014726;28;20080;-71
2020/12/23 07:48:15;;;;;;;1.20;0.90;;;13.50;99.90;;;;;;5014954;28;20508;-73
2020/12/23 07:50:44;;;;;;;0.90;0.70;;;13.60;99.90;;;;;;4997764;28;20040;-74
2020/12/23 07:53:14;;;;;;;0.68;0.68;;;13.60;99.90;;;;;;4997427;28;20159;-72
2020/12/23 07:55:42;;;;;;;0.60;0.60;;;13.60;99.90;;;;;;5015237;28;20103;-71
2020/12/23 07:58:08;;;;;;;0.60;0.60;;;13.60;99.90;;;;;;5013817;28;20018;-73
2020/12/23 08:00:35;;;;;;;1.27;0.90;;;13.70;99.90;;;;;;5014402;28;20109;-71
2020/12/23 08:03:01;;;;;;;1.20;0.80;;;13.60;99.90;;;;;;5014851;28;20026;-73
2020/12/23 08:05:27;;;;;;;1.10;0.70;;;13.60;99.90;;;;;;4996180;28;20099;-72
2020/12/23 08:07:52;;;;;;;2.28;0.80;;;13.60;99.90;;;;;;5013310;28;20029;-73
2020/12/23 08:10:20;;;;;;;0.68;0.60;;;13.70;99.90;;;;;;5013454;28;20029;-73
2020/12/23 08:13:00;;;;;;;2.05;0.75;;;13.80;99.90;;;;;;5013679;28;20030;-72
2020/12/23 08:15:26;;;;;;;1.55;0.90;;;13.80;99.90;;;;;;5013384;28;20034;-72
2020/12/23 08:18:03;;;;;;;1.20;0.90;;;13.90;99.90;;;;;;5017241;28;20034;-72
2020/12/23 08:20:29;;;;;;;1.35;0.90;;;13.80;99.90;;;;;;5001957;28;20442;-72
2020/12/23 08:22:54;;;;;;;2.25;0.90;;;13.80;99.90;;;;;;5000060;28;20022;-72
2020/12/23 08:25:22;;;;;;;2.20;0.75;;;13.80;99.90;;;;;;5016514;28;20366;-72
2020/12/23 08:27:52;;;;;;;0.88;0.77;;;13.90;99.90;;;;;;5015790;28;20216;-72
2020/12/23 08:30:19;;;;;;;1.40;0.88;;;14.00;99.90;;;;;;4998446;28;20118;-72
2020/12/23 08:33:00;;;;;;;2.50;0.98;;;14.00;99.90;;;;;;5015375;28;20201;-72
2020/12/23 08:35:28;;;;;;;1.38;0.88;;;14.10;99.90;;;;;;5018148;28;20037;-72
2020/12/23 08:37:54;;;;;;;0.88;0.80;;;14.00;99.90;;;;;;5015839;28;20492;-73
2020/12/23 08:40:19;;;;;;;1.98;0.80;;;14.10;99.90;;;;;;5014388;28;20037;-72
2020/12/23 08:42:55;;;;;;;1.00;0.90;;;14.10;99.90;;;;;;5013398;28;20076;-73
2020/12/23 08:45:23;;;;;;;1.92;1.42;;;14.20;99.90;;;;;;5012999;28;20108;-72
2020/12/23 08:47:50;;;;;;;1.92;0.90;;;14.20;99.90;;;;;;5013292;28;20029;-72
2020/12/23 08:50:18;;;;;;;0.80;0.70;;;14.30;99.90;;;;;;5012496;28;20030;-74
2020/12/23 08:52:48;;;;;;;0.60;0.60;;;14.30;99.90;;;;;;5012960;28;20041;-74
2020/12/23 08:55:17;;;;;;;2.67;2.08;;;14.30;99.90;;;;;;5012971;28;20578;-73
2020/12/23 08:57:43;;;;;;;0.60;0.60;;;14.40;99.90;;;;;;5013518;28;20030;-73
2020/12/23 09:00:16;;;;;;;1.25;0.80;;;14.40;99.90;;;;;;5013010;28;20382;-73
2020/12/23 09:02:43;;;;;;;2.28;0.90;;;14.40;99.90;;;;;;5013355;28;20037;-72
2020/12/23 09:05:24;;;;;;;1.85;1.25;;;14.40;99.90;;;;;;5012492;28;20030;-73
2020/12/23 09:08:03;;;;;;;5.53;1.23;;;14.40;99.90;;;;;;5011856;28;20394;-72
2020/12/23 09:10:29;;;;;;;1.10;1.00;;;14.50;99.90;;;;;;5013864;28;20066;-73
2020/12/23 09:13:05;;;;;;;1.80;1.20;;;14.50;99.90;;;;;;5016363;28;20065;-72
2020/12/23 09:15:31;;;;;;;2.03;0.90;;;14.60;99.90;;;;;;5016636;28;20033;-73
2020/12/23 09:18:13;;;;;;;3.35;0.93;;;14.60;99.90;;;;;;5016797;28;20026;-72
2020/12/23 09:20:40;;;;;;;3.58;0.80;;;14.60;99.90;;;;;;4998546;28;20249;-73
2020/12/23 09:23:10;;;;;;;1.00;0.90;;;14.60;99.90;;;;;;5016828;28;20026;-72
2020/12/23 09:25:37;;;;;;;0.70;0.70;;;14.60;99.90;;;;;;4998955;28;20033;-73
2020/12/23 09:28:10;;;;;;;1.20;0.82;;;14.60;99.90;;;;;;5016841;28;20097;-73
2020/12/23 09:30:59;;;;;;;1.08;0.70;;;14.60;99.90;;;;;;5017367;28;20098;-72
2020/12/23 09:33:25;;;;;;;0.98;0.85;;;14.50;99.90;;;;;;5019149;28;20371;-72
2020/12/23 09:36:03;;;;;;;1.20;0.70;;;14.60;99.90;;;;;;5016915;28;20029;-73
2020/12/23 09:38:34;;;;;;;1.20;0.65;;;14.50;99.90;;;;;;5000039;28;20040;-73
2020/12/23 09:41:01;;;;;;;1.65;0.80;;;14.50;99.90;;;;;;5017314;28;20118;-73
2020/12/23 09:43:29;;;;;;;0.55;0.55;;;14.60;99.90;;;;;;5018443;28;20484;-72
2020/12/23 09:45:56;;;;;;;1.05;0.80;;;14.60;99.90;;;;;;5021358;28;20022;-73
2020/12/23 09:48:27;;;;;;;1.02;0.82;;;14.50;99.90;;;;;;5024718;28;20118;-74
2020/12/23 09:50:55;;;;;;;0.90;0.65;;;14.60;99.90;;;;;;5024540;28;20473;-72
2020/12/23 09:53:25;;;;;;;2.17;0.98;;;14.60;99.90;;;;;;5008311;28;20173;-73
2020/12/23 09:55:52;;;;;;;1.00;0.80;;;14.70;99.90;;;;;;5022939;28;20085;-73
2020/12/23 09:58:19;;;;;;;1.67;1.35;;;14.70;99.90;;;;;;5001336;28;20030;-71
2020/12/23 10:00:48;;;;;;;1.80;1.00;;;14.70;99.90;;;;;;5004048;28;20026;-73
2020/12/23 10:03:14;;;;;;;4.88;1.02;;;14.70;99.90;;;;;;5008420;28;20022;-74
2020/12/23 10:05:40;;;;;;;3.05;1.00;;;14.60;99.90;;;;;;5007985;28;20112;-73
2020/12/23 10:08:06;;;;;;;5.40;1.40;;;14.70;99.90;;;;;;5017636;28;20068;-72
2020/12/23 10:10:33;;;;;;;1.73;1.63;;;14.70;99.90;;;;;;5016790;28;20392;-72
2020/12/23 10:12:59;;;;;;;1.83;1.27;;;14.70;99.90;;;;;;4997188;28;20031;-72
2020/12/23 10:15:24;;;;;;;1.95;1.10;;;14.60;99.90;;;;;;4997956;28;20034;-73
2020/12/23 10:17:50;;;;;;;2.45;0.77;;;14.60;99.90;;;;;;5015223;28;20103;-71
2020/12/23 10:20:16;;;;;;;1.30;0.90;;;14.50;99.90;;;;;;5015751;28;20026;-73
2020/12/23 10:22:42;;;;;;;3.13;0.75;;;14.50;99.90;;;;;;5016662;28;20018;-74
2020/12/23 10:25:09;;;;;;;1.10;1.00;;;14.50;99.90;;;;;;4999439;28;20042;-72
2020/12/23 10:27:35;;;;;;;2.10;0.80;;;14.60;99.90;;;;;;5017183;28;20026;-72
2020/12/23 10:30:03;;;;;;;2.08;0.80;;;14.70;99.90;;;;;;5011683;28;20033;-73
2020/12/23 10:32:29;;;;;;;1.00;0.70;;;14.70;99.90;;;;;;5018450;28;20025;-73
2020/12/23 10:34:55;;;;;;;0.85;0.85;;;14.70;99.90;;;;;;5020032;28;20041;-73
2020/12/23 10:37:22;;;;;;;1.88;1.00;;;14.70;99.90;;;;;;5018147;28;20030;-71
2020/12/23 10:39:48;;;;;;;1.75;0.98;;;14.70;99.90;;;;;;5019061;28;20025;-73
2020/12/23 10:42:14;;;;;;;1.92;1.15;;;14.80;99.90;;;;;;5019266;28;20026;-73
2020/12/23 10:44:40;;;;;;;3.03;1.10;;;14.90;99.90;;;;;;5019043;28;20048;-72
2020/12/23 10:47:05;;;;;;;1.98;0.93;;;14.90;99.90;;;;;;5016770;28;20045;-73
2020/12/23 10:49:31;;;;;;;1.05;0.75;;;15.00;99.90;;;;;;4999307;28;20117;-72
2020/12/23 10:51:58;;;;;;;1.13;0.98;;;14.90;99.90;;;;;;5006468;28;20034;-73
2020/12/23 10:54:25;;;;;;;0.70;0.63;;;15.00;99.90;;;;;;5018422;28;20398;-72
2020/12/23 10:56:51;;;;;;;1.52;1.00;;;15.00;99.90;;;;;;5000038;28;20030;-73
2020/12/23 10:59:17;;;;;;;1.63;1.05;;;15.00;99.90;;;;;;5015262;28;20037;-73
2020/12/23 11:01:43;;;;;;;2.65;1.05;;;15.00;99.90;;;;;;5018391;28;20026;-72
2020/12/23 11:04:08;;;;;;;1.00;0.90;;;15.00;99.90;;;;;;5020718;28;20109;-72
2020/12/23 11:06:34;;;;;;;3.28;0.93;;;15.00;99.90;;;;;;5023934;28;20035;-73
2020/12/23 11:09:00;;;;;;;2.80;1.35;;;15.00;99.90;;;;;;5031532;28;20033;-75
2020/12/23 11:11:26;;;;;;;2.95;0.95;;;15.00;99.90;;;;;;4996300;28;20033;-73
2020/12/23 11:13:52;;;;;;;3.00;1.30;;;15.10;99.90;;;;;;5014553;28;20045;-73
2020/12/23 11:16:19;;;;;;;1.13;0.90;;;15.00;99.90;;;;;;5014384;28;20389;-73
2020/12/23 11:18:46;;;;;;;1.55;0.82;;;15.00;99.90;;;;;;5011166;28;20018;-72
2020/12/23 11:21:14;;;;;;;1.10;0.90;;;14.90;99.90;;;;;;5016258;28;20026;-72
2020/12/23 11:23:39;;;;;;;2.25;0.85;;;15.00;99.90;;;;;;5016602;28;20417;-75
2020/12/23 11:26:05;;;;;;;1.35;0.90;;;15.00;99.90;;;;;;5018337;28;20076;-73
2020/12/23 11:28:32;;;;;;;1.52;1.42;;;14.90;99.90;;;;;;5012975;28;20094;-72
2020/12/23 11:31:00;;;;;;;1.55;1.10;;;14.90;99.90;;;;;;5016132;28;20022;-73
2020/12/23 11:33:27;;;;;;;1.48;1.00;;;15.00;99.90;;;;;;4995532;28;20113;-72
2020/12/23 11:35:53;;;;;;;2.65;1.13;;;15.00;99.90;;;;;;5007242;28;20535;-72
2020/12/23 11:38:19;;;;;;;1.92;1.60;;;14.90;99.90;;;;;;5014884;28;20030;-72
2020/12/23 11:40:44;;;;;;;3.05;1.10;;;14.90;99.90;;;;;;5014418;28;20026;-72
2020/12/23 11:43:10;;;;;;;1.80;1.05;;;14.90;99.90;;;;;;4999258;28;20109;-73
2020/12/23 11:45:36;;;;;;;6.35;1.00;;;14.90;99.90;;;;;;5003279;28;20030;-73
2020/12/23 11:48:01;;;;;;;1.80;1.15;;;14.80;99.90;;;;;;5003004;28;20037;-73
2020/12/23 11:50:27;;;;;;;1.75;1.23;;;14.90;99.90;;;;;;5001763;28;20025;-73
2020/12/23 11:52:53;;;;;;;2.78;0.98;;;14.90;99.90;;;;;;5014078;28;20050;-73
2020/12/23 11:55:18;;;;;;;1.48;1.20;;;14.90;99.90;;;;;;5013842;28;20069;-72
2020/12/23 11:57:45;;;;;;;2.13;1.20;;;14.80;99.90;;;;;;5013991;28;20033;-73
2020/12/23 12:00:11;;;;;;;3.58;1.50;;;14.70;99.90;;;;;;4995889;28;20247;-72
2020/12/23 12:02:37;;;;;;;1.50;0.98;;;14.70;99.90;;;;;;4995940;28;20018;-73
2020/12/23 12:05:03;;;;;;;3.63;1.40;;;14.70;99.90;;;;;;5013883;28;20389;-74
2020/12/23 12:07:29;;;;;;;2.70;1.85;;;14.60;99.90;;;;;;5013910;28;20037;-72
2020/12/23 12:09:55;;;;;;;4.60;1.27;;;14.60;99.90;;;;;;5009073;28;20080;-71
2020/12/23 12:12:21;;;;;;;2.25;1.90;;;14.60;99.90;;;;;;4995881;28;20033;-72
2020/12/23 12:14:46;;;;;;;3.50;1.67;;;14.60;99.90;;;;;;5013445;28;20026;-72
2020/12/23 12:17:12;;;;;;;3.50;1.80;;;14.60;99.90;;;;;;4994989;28;20545;-73
2020/12/23 12:19:37;;;;;;;3.47;1.73;;;14.50;99.90;;;;;;5013752;28;20025;-72
2020/12/23 12:22:03;;;;;;;2.38;2.03;;;14.60;99.90;;;;;;4995738;28;20026;-72
2020/12/23 12:24:28;;;;;;;3.63;2.08;;;14.50;99.90;;;;;;5010028;28;20058;-72
2020/12/23 12:26:54;;;;;;;1.63;1.40;;;14.50;99.90;;;;;;4994198;28;20423;-74
2020/12/23 12:29:19;;;;;;;1.20;1.10;;;14.50;99.90;;;;;;5011648;28;20030;-72
2020/12/23 12:31:47;;;;;;;1.75;1.65;;;14.70;99.90;;;;;;5013508;28;20026;-71
2020/12/23 12:34:12;;;;;;;1.38;0.90;;;14.80;99.90;;;;;;4997768;28;20405;-73
2020/12/23 12:36:38;;;;;;;1.50;1.40;;;14.90;99.90;;;;;;5015286;28;20025;-70
2020/12/23 12:39:04;;;;;;;3.67;1.58;;;14.80;99.90;;;;;;5016358;28;20030;-71
2020/12/23 12:41:29;;;;;;;1.33;1.20;;;14.80;99.90;;;;;;5016342;28;20058;-71
2020/12/23 12:43:56;;;;;;;3.30;1.40;;;14.60;99.90;;;;;;5013243;28;20053;-72
2020/12/23 12:46:23;;;;;;;5.60;1.60;;;14.60;99.90;;;;;;4997048;28;20077;-73
2020/12/23 12:48:49;;;;;;;3.25;2.28;;;14.50;99.90;;;;;;5000955;28;20030;-72